Time;durP1;ratioP1;P1;durP2;ratioP2;P2;SDS_P1;SDS_P2;PMS_P1;PMS_P2;Temp;Humidity;BMP_temperature;BMP_pressure;BME280_temperature;BME280_humidity;BME280_pressure;Samples;Min_cycle;Max_cycle;Signal;HPM_P1;HPM_P2
2023/06/23 00:00:49;;;;;;;6.93;6.20;;;;;;;;;;5071520;28;20209;-54
2023/06/23 00:03:15;;;;;;;7.87;6.30;;;;;;;;;;5071605;28;20284;-55
2023/06/23 00:05:41;;;;;;;6.63;5.93;;;;;;;;;;5073146;28;20214;-56
2023/06/23 00:08:07;;;;;;;6.90;6.30;;;;;;;;;;5073211;28;20203;-55
2023/06/23 00:10:33;;;;;;;6.33;5.73;;;;;;;;;;5073213;28;20277;-56
2023/06/23 00:13:02;;;;;;;7.13;6.53;;;;;;;;;;5073233;28;20225;-56
2023/06/23 00:15:28;;;;;;;8.77;6.20;;;;;;;;;;5073058;28;20238;-54
2023/06/23 00:17:54;;;;;;;6.67;5.93;;;;;;;;;;5073153;28;20202;-55
2023/06/23 00:20:22;;;;;;;7.00;6.10;;;;;;;;;;5071204;28;20676;-55
2023/06/23 00:22:48;;;;;;;6.43;5.93;;;;;;;;;;5071362;28;20199;-55
2023/06/23 00:25:14;;;;;;;6.40;5.87;;;;;;;;;;5072041;28;20209;-55
2023/06/23 00:27:40;;;;;;;7.10;6.47;;;;;;;;;;5072630;28;20198;-55
2023/06/23 00:30:08;;;;;;;7.67;6.97;;;;;;;;;;5072384;28;20194;-55
2023/06/23 00:32:34;;;;;;;7.50;6.90;;;;;;;;;;5072672;28;20216;-55
2023/06/23 00:35:00;;;;;;;7.40;5.93;;;;;;;;;;5072532;28;20226;-55
2023/06/23 00:37:26;;;;;;;6.27;5.77;;;;;;;;;;5072346;28;20560;-55
2023/06/23 00:39:52;;;;;;;6.60;6.00;;;;;;;;;;5072263;28;20206;-55
2023/06/23 00:42:18;;;;;;;7.60;6.73;;;;;;;;;;5072174;28;20227;-55
2023/06/23 00:44:44;;;;;;;6.07;5.57;;;;;;;;;;5072203;28;20584;-55
2023/06/23 00:47:14;;;;;;;6.60;6.00;;;;;;;;;;5072016;28;20224;-56
2023/06/23 00:49:41;;;;;;;7.07;6.23;;;;;;;;;;5072118;28;20204;-55
2023/06/23 00:52:07;;;;;;;6.57;5.60;;;;;;;;;;5071850;28;20615;-55
2023/06/23 00:54:35;;;;;;;6.20;5.60;;;;;;;;;;5071935;28;20201;-55
2023/06/23 00:57:01;;;;;;;5.53;5.00;;;;;;;;;;5071932;28;20202;-55
2023/06/23 00:59:30;;;;;;;9.33;5.10;;;;;;;;;;5071566;28;20205;-56
2023/06/23 01:02:00;;;;;;;6.03;5.43;;;;;;;;;;5072031;28;20653;-56
2023/06/23 01:04:28;;;;;;;6.93;5.83;;;;;;;;;;5071659;28;20223;-57
2023/06/23 01:06:59;;;;;;;5.57;5.03;;;;;;;;;;5071738;28;20459;-53
2023/06/23 01:09:30;;;;;;;5.80;5.30;;;;;;;;;;5071645;28;20668;-54
2023/06/23 01:12:00;;;;;;;6.40;5.60;;;;;;;;;;5071697;28;20210;-54
2023/06/23 01:14:28;;;;;;;6.57;5.70;;;;;;;;;;5071548;28;20296;-54
2023/06/23 01:16:57;;;;;;;5.53;5.03;;;;;;;;;;5071670;28;20213;-54
2023/06/23 01:19:28;;;;;;;5.47;4.97;;;;;;;;;;5071510;28;20293;-55
2023/06/23 01:22:01;;;;;;;7.37;6.27;;;;;;;;;;5071756;28;20565;-55
2023/06/23 01:24:35;;;;;;;6.50;5.90;;;;;;;;;;5071431;28;20206;-55
2023/06/23 01:27:15;;;;;;;6.00;5.00;;;;;;;;;;5071192;28;20311;-55
2023/06/23 01:29:44;;;;;;;6.10;5.50;;;;;;;;;;5071462;28;20198;-55
2023/06/23 01:32:12;;;;;;;5.37;4.90;;;;;;;;;;5071225;28;20748;-55
2023/06/23 01:34:41;;;;;;;6.73;5.27;;;;;;;;;;5071024;28;20285;-55
2023/06/23 01:37:08;;;;;;;5.67;5.23;;;;;;;;;;5071222;28;20199;-55
2023/06/23 01:39:35;;;;;;;6.10;5.20;;;;;;;;;;5071125;28;20648;-55
2023/06/23 01:42:04;;;;;;;6.07;5.40;;;;;;;;;;5071052;28;20208;-55
2023/06/23 01:44:31;;;;;;;5.87;4.90;;;;;;;;;;5071262;28;20213;-55
2023/06/23 01:47:00;;;;;;;6.33;5.70;;;;;;;;;;5071051;28;20565;-55
2023/06/23 01:49:27;;;;;;;6.93;5.70;;;;;;;;;;5071060;28;20195;-56
2023/06/23 01:51:54;;;;;;;6.03;5.40;;;;;;;;;;5071017;28;20199;-55
2023/06/23 01:54:20;;;;;;;6.00;5.40;;;;;;;;;;5070871;28;20249;-55
2023/06/23 01:56:48;;;;;;;5.47;4.97;;;;;;;;;;5070770;28;20253;-55
2023/06/23 01:59:14;;;;;;;6.80;5.80;;;;;;;;;;5071082;28;20194;-55
2023/06/23 02:01:42;;;;;;;6.20;5.67;;;;;;;;;;5070912;28;20246;-55
2023/06/23 02:04:10;;;;;;;5.83;5.23;;;;;;;;;;5070737;28;20197;-55
2023/06/23 02:06:37;;;;;;;5.93;5.33;;;;;;;;;;5070995;28;20198;-55
2023/06/23 02:09:06;;;;;;;8.90;6.07;;;;;;;;;;5070696;28;20575;-54
2023/06/23 02:11:34;;;;;;;6.30;5.67;;;;;;;;;;5071137;28;20194;-55
2023/06/23 02:14:00;;;;;;;6.10;5.50;;;;;;;;;;5070820;28;20190;-55
2023/06/23 02:16:28;;;;;;;8.50;6.70;;;;;;;;;;5070703;28;20255;-54
2023/06/23 02:18:58;;;;;;;7.10;6.40;;;;;;;;;;5070903;28;20206;-55
2023/06/23 02:21:26;;;;;;;6.53;5.97;;;;;;;;;;5070882;28;20611;-55
2023/06/23 02:23:53;;;;;;;7.27;6.57;;;;;;;;;;5070584;28;20196;-55
2023/06/23 02:26:21;;;;;;;7.70;7.00;;;;;;;;;;5070540;28;20223;-54
2023/06/23 02:28:49;;;;;;;6.93;6.27;;;;;;;;;;5070691;28;20224;-55
2023/06/23 02:31:16;;;;;;;6.80;6.10;;;;;;;;;;5070573;28;20216;-54
2023/06/23 02:33:42;;;;;;;7.37;6.67;;;;;;;;;;5070693;28;20201;-54
2023/06/23 02:36:09;;;;;;;6.57;5.97;;;;;;;;;;5070564;28;20275;-55
2023/06/23 02:38:37;;;;;;;7.10;5.73;;;;;;;;;;5070596;28;20212;-53
2023/06/23 02:41:04;;;;;;;6.13;5.60;;;;;;;;;;5070500;28;20575;-53
2023/06/23 02:43:33;;;;;;;5.80;4.90;;;;;;;;;;5070490;28;20670;-54
2023/06/23 02:46:00;;;;;;;6.33;5.30;;;;;;;;;;5071314;28;20204;-53
2023/06/23 02:48:33;;;;;;;6.23;5.00;;;;;;;;;;5074586;28;20562;-53
2023/06/23 02:50:59;;;;;;;4.70;4.30;;;;;;;;;;5074311;28;20225;-54
2023/06/23 02:53:27;;;;;;;4.53;4.10;;;;;;;;;;5074146;28;20705;-54
2023/06/23 02:55:56;;;;;;;3.53;3.30;;;;;;;;;;5074124;28;20312;-54
2023/06/23 02:58:26;;;;;;;3.80;2.97;;;;;;;;;;5074199;28;20207;-54
2023/06/23 03:01:02;;;;;;;3.13;2.83;;;;;;;;;;5074157;28;20209;-56
2023/06/23 03:03:29;;;;;;;4.23;2.90;;;;;;;;;;5074344;28;20197;-53
2023/06/23 03:05:58;;;;;;;3.10;2.80;;;;;;;;;;5074114;28;20226;-53
2023/06/23 03:08:25;;;;;;;2.50;2.30;;;;;;;;;;5073910;28;20190;-54
2023/06/23 03:10:51;;;;;;;2.57;2.10;;;;;;;;;;5073981;28;20196;-53
2023/06/23 03:13:18;;;;;;;3.33;2.37;;;;;;;;;;5073880;28;20226;-54
2023/06/23 03:15:47;;;;;;;3.37;2.40;;;;;;;;;;5073743;28;20726;-54
2023/06/23 03:18:15;;;;;;;3.10;2.80;;;;;;;;;;5073783;28;20201;-54
2023/06/23 03:20:45;;;;;;;3.17;2.87;;;;;;;;;;5073740;28;20545;-54
2023/06/23 03:23:12;;;;;;;3.13;2.90;;;;;;;;;;5073660;28;20218;-54
2023/06/23 03:25:40;;;;;;;4.00;2.80;;;;;;;;;;5073591;28;20260;-53
2023/06/23 03:28:08;;;;;;;3.63;3.30;;;;;;;;;;5073868;28;20253;-54
2023/06/23 03:30:39;;;;;;;3.37;3.07;;;;;;;;;;5073622;28;20203;-54
2023/06/23 03:33:09;;;;;;;2.97;2.77;;;;;;;;;;5073450;28;20671;-53
2023/06/23 03:35:40;;;;;;;3.63;2.83;;;;;;;;;;5073340;28;20593;-53
2023/06/23 03:38:09;;;;;;;3.17;2.73;;;;;;;;;;5072986;28;20208;-54
2023/06/23 03:40:38;;;;;;;3.27;2.97;;;;;;;;;;5073525;28;20196;-54
2023/06/23 03:43:06;;;;;;;3.50;3.20;;;;;;;;;;5073592;28;20330;-54
2023/06/23 03:45:34;;;;;;;3.57;3.27;;;;;;;;;;5073094;28;20559;-54
2023/06/23 03:48:03;;;;;;;3.80;3.40;;;;;;;;;;5072799;28;20195;-54
2023/06/23 03:50:30;;;;;;;4.10;3.70;;;;;;;;;;5072723;28;20196;-54
2023/06/23 03:52:57;;;;;;;3.90;3.60;;;;;;;;;;5072888;28;20207;-54
2023/06/23 03:55:25;;;;;;;5.53;3.83;;;;;;;;;;5073044;28;20329;-54
2023/06/23 03:57:51;;;;;;;3.83;3.53;;;;;;;;;;5073152;28;20249;-54
2023/06/23 04:00:18;;;;;;;4.03;3.73;;;;;;;;;;5073062;28;20208;-55
2023/06/23 04:02:45;;;;;;;3.70;3.40;;;;;;;;;;5072853;28;20202;-54
2023/06/23 04:05:15;;;;;;;3.30;3.00;;;;;;;;;;5072857;28;20632;-54
2023/06/23 04:07:41;;;;;;;3.87;3.57;;;;;;;;;;5073239;28;20209;-54
2023/06/23 04:10:08;;;;;;;3.47;3.20;;;;;;;;;;5072910;28;20205;-55
2023/06/23 04:12:34;;;;;;;4.17;3.57;;;;;;;;;;5072844;28;20731;-54
2023/06/23 04:15:01;;;;;;;3.50;3.20;;;;;;;;;;5072585;28;20328;-54
2023/06/23 04:17:28;;;;;;;3.70;3.40;;;;;;;;;;5072676;28;20197;-54
2023/06/23 04:19:56;;;;;;;3.53;3.23;;;;;;;;;;5072743;28;20228;-54
2023/06/23 04:22:24;;;;;;;3.77;3.47;;;;;;;;;;5072570;28;20205;-54
2023/06/23 04:24:50;;;;;;;3.90;3.37;;;;;;;;;;5072648;28;20201;-53
2023/06/23 04:27:18;;;;;;;3.43;3.23;;;;;;;;;;5072416;28;20241;-53
2023/06/23 04:29:46;;;;;;;3.77;3.43;;;;;;;;;;5072494;28;20741;-53
2023/06/23 04:32:13;;;;;;;3.53;3.23;;;;;;;;;;5072342;28;20227;-54
2023/06/23 04:34:39;;;;;;;3.93;3.20;;;;;;;;;;5072441;28;20201;-54
2023/06/23 04:37:07;;;;;;;3.90;3.50;;;;;;;;;;5072094;28;20197;-55
2023/06/23 04:39:37;;;;;;;4.07;3.77;;;;;;;;;;5072400;28;20204;-54
2023/06/23 04:42:04;;;;;;;3.40;3.10;;;;;;;;;;5072216;28;20208;-54
2023/06/23 04:44:33;;;;;;;3.67;3.37;;;;;;;;;;5072228;28;20256;-54
2023/06/23 04:47:02;;;;;;;3.97;3.57;;;;;;;;;;5072091;28;20189;-55
2023/06/23 04:49:29;;;;;;;4.00;3.57;;;;;;;;;;5072225;28;20206;-54
2023/06/23 04:51:57;;;;;;;4.33;3.93;;;;;;;;;;5072058;28;20674;-54
2023/06/23 04:54:25;;;;;;;4.27;3.87;;;;;;;;;;5071921;28;20685;-54
2023/06/23 04:57:00;;;;;;;5.00;4.20;;;;;;;;;;5072000;28;20653;-54
2023/06/23 04:59:26;;;;;;;4.60;4.20;;;;;;;;;;5071909;28;20281;-54
2023/06/23 05:01:53;;;;;;;5.00;4.60;;;;;;;;;;5071924;28;20195;-54
2023/06/23 05:04:19;;;;;;;5.33;4.87;;;;;;;;;;5071823;28;20586;-54
2023/06/23 05:06:46;;;;;;;5.63;5.17;;;;;;;;;;5071823;28;20249;-54
2023/06/23 05:09:13;;;;;;;5.90;5.40;;;;;;;;;;5071213;28;20200;-54
2023/06/23 05:11:39;;;;;;;6.77;6.17;;;;;;;;;;5071732;28;20215;-55
2023/06/23 05:14:07;;;;;;;6.40;5.80;;;;;;;;;;5071663;28;20705;-55
2023/06/23 05:16:33;;;;;;;6.17;5.50;;;;;;;;;;5071539;28;20235;-56
2023/06/23 05:19:00;;;;;;;5.80;5.30;;;;;;;;;;5071391;28;20251;-55
2023/06/23 05:21:27;;;;;;;6.60;5.90;;;;;;;;;;5071149;28;20199;-55
2023/06/23 05:23:55;;;;;;;5.80;5.07;;;;;;;;;;5071261;28;20203;-55
2023/06/23 05:26:22;;;;;;;6.30;5.70;;;;;;;;;;5071047;28;20600;-56
2023/06/23 05:28:48;;;;;;;6.37;5.87;;;;;;;;;;5071330;28;20208;-56
2023/06/23 05:31:17;;;;;;;6.67;6.07;;;;;;;;;;5071112;28;20661;-56
2023/06/23 05:33:45;;;;;;;5.57;5.07;;;;;;;;;;5071039;28;20703;-55
2023/06/23 05:36:12;;;;;;;6.83;6.13;;;;;;;;;;5071064;28;20219;-56
2023/06/23 05:38:38;;;;;;;5.80;5.30;;;;;;;;;;5071304;28;20220;-56
2023/06/23 05:41:04;;;;;;;6.30;5.20;;;;;;;;;;5071139;28;20204;-55
2023/06/23 05:43:30;;;;;;;6.50;5.90;;;;;;;;;;5071017;28;20196;-55
2023/06/23 05:45:57;;;;;;;6.70;6.10;;;;;;;;;;5071095;28;20200;-55
2023/06/23 05:48:30;;;;;;;5.97;5.47;;;;;;;;;;5071198;28;20200;-54
2023/06/23 05:50:58;;;;;;;6.30;5.43;;;;;;;;;;5071051;28;20205;-55
2023/06/23 05:53:24;;;;;;;6.30;5.70;;;;;;;;;;5070986;28;20272;-54
2023/06/23 05:55:52;;;;;;;7.03;6.43;;;;;;;;;;5070975;28;20233;-54
2023/06/23 05:58:20;;;;;;;6.57;5.77;;;;;;;;;;5070786;28;20245;-54
2023/06/23 06:00:51;;;;;;;6.90;6.30;;;;;;;;;;5071006;28;20208;-54
2023/06/23 06:03:19;;;;;;;6.77;6.20;;;;;;;;;;5070937;28;20205;-54
2023/06/23 06:05:48;;;;;;;6.97;6.27;;;;;;;;;;5070837;28;20308;-53
2023/06/23 06:08:15;;;;;;;6.70;6.10;;;;;;;;;;5070918;28;20200;-54
2023/06/23 06:10:42;;;;;;;6.27;5.77;;;;;;;;;;5070939;28;20226;-55
2023/06/23 06:13:08;;;;;;;6.90;6.30;;;;;;;;;;5070774;28;20205;-55
2023/06/23 06:15:34;;;;;;;7.00;6.30;;;;;;;;;;5070696;28;20625;-54
2023/06/23 06:18:03;;;;;;;6.63;6.03;;;;;;;;;;5070621;28;20303;-55
2023/06/23 06:20:30;;;;;;;6.87;6.27;;;;;;;;;;5070804;28;20203;-54
2023/06/23 06:22:57;;;;;;;6.83;6.23;;;;;;;;;;5075004;28;20193;-55
2023/06/23 06:25:24;;;;;;;6.10;5.50;;;;;;;;;;5074761;28;20227;-54
2023/06/23 06:27:51;;;;;;;8.53;6.03;;;;;;;;;;5074960;28;20659;-54
2023/06/23 06:30:17;;;;;;;7.20;6.50;;;;;;;;;;5074708;28;20299;-54
2023/06/23 06:32:44;;;;;;;6.90;6.30;;;;;;;;;;5072414;28;20192;-54
2023/06/23 06:35:11;;;;;;;7.73;6.03;;;;;;;;;;5074520;28;20215;-54
2023/06/23 06:37:38;;;;;;;6.63;6.00;;;;;;;;;;5074563;28;20254;-54
2023/06/23 06:40:06;;;;;;;6.93;5.57;;;;;;;;;;5074669;28;20200;-54
2023/06/23 06:42:32;;;;;;;6.67;6.07;;;;;;;;;;5074531;28;20192;-54
2023/06/23 06:44:58;;;;;;;7.20;5.63;;;;;;;;;;5074392;28;20654;-54
2023/06/23 06:47:25;;;;;;;6.43;5.83;;;;;;;;;;5074424;28;20185;-54
2023/06/23 06:49:52;;;;;;;5.83;5.33;;;;;;;;;;5074332;28;20662;-53
2023/06/23 06:52:19;;;;;;;5.77;5.23;;;;;;;;;;5073981;28;20571;-54
2023/06/23 06:54:45;;;;;;;6.30;5.47;;;;;;;;;;5074445;28;20262;-55
2023/06/23 06:57:12;;;;;;;5.83;5.23;;;;;;;;;;5074352;28;20231;-54
2023/06/23 06:59:38;;;;;;;5.93;5.13;;;;;;;;;;5074507;28;20212;-54
2023/06/23 07:02:06;;;;;;;5.17;4.67;;;;;;;;;;5074186;28;20283;-54
2023/06/23 07:04:32;;;;;;;6.40;5.60;;;;;;;;;;5073949;28;20704;-54
2023/06/23 07:06:58;;;;;;;5.13;4.63;;;;;;;;;;5074035;28;20291;-54
2023/06/23 07:09:24;;;;;;;5.13;4.70;;;;;;;;;;5074042;28;20200;-55
2023/06/23 07:11:50;;;;;;;5.07;4.57;;;;;;;;;;5074360;28;20200;-55
2023/06/23 07:14:17;;;;;;;5.50;5.00;;;;;;;;;;5074136;28;20222;-56
2023/06/23 07:16:43;;;;;;;4.90;4.40;;;;;;;;;;5074094;28;20274;-56
2023/06/23 07:19:09;;;;;;;6.50;5.60;;;;;;;;;;5073961;28;20621;-56
2023/06/23 07:21:35;;;;;;;5.50;4.87;;;;;;;;;;5074066;28;20251;-56
2023/06/23 07:24:01;;;;;;;6.00;4.90;;;;;;;;;;5074046;28;20670;-55
2023/06/23 07:26:27;;;;;;;5.37;4.87;;;;;;;;;;5073733;28;20284;-55
2023/06/23 07:28:54;;;;;;;5.30;4.80;;;;;;;;;;5073920;28;20288;-55
2023/06/23 07:31:21;;;;;;;6.23;5.63;;;;;;;;;;5073613;28;20700;-55
2023/06/23 07:33:47;;;;;;;5.87;5.30;;;;;;;;;;5073686;28;20207;-55
2023/06/23 07:36:13;;;;;;;6.57;5.90;;;;;;;;;;5073689;28;20226;-56
2023/06/23 07:38:40;;;;;;;6.27;5.77;;;;;;;;;;5073762;28;20563;-55
2023/06/23 07:41:06;;;;;;;5.27;4.77;;;;;;;;;;5073749;28;20292;-55
2023/06/23 07:43:32;;;;;;;6.33;5.73;;;;;;;;;;5073790;28;20630;-55
2023/06/23 07:45:58;;;;;;;6.40;5.40;;;;;;;;;;5073697;28;20196;-55
2023/06/23 07:48:25;;;;;;;6.43;5.43;;;;;;;;;;5073604;28;20196;-55
2023/06/23 07:50:51;;;;;;;6.60;6.00;;;;;;;;;;5073668;28;20205;-55
2023/06/23 07:53:17;;;;;;;13.63;6.30;;;;;;;;;;5073562;28;20208;-56
2023/06/23 07:55:43;;;;;;;5.73;5.23;;;;;;;;;;5073533;28;20228;-54
2023/06/23 07:58:09;;;;;;;6.87;5.43;;;;;;;;;;5073794;28;20583;-54
2023/06/23 08:00:39;;;;;;;7.20;5.37;;;;;;;;;;5073572;28;20304;-54
2023/06/23 08:03:05;;;;;;;6.67;5.87;;;;;;;;;;5073203;28;20232;-58
2023/06/23 08:05:33;;;;;;;6.87;6.27;;;;;;;;;;5073329;28;20581;-57
2023/06/23 08:07:59;;;;;;;6.10;5.60;;;;;;;;;;5073237;28;20279;-56
2023/06/23 08:10:25;;;;;;;6.13;5.63;;;;;;;;;;5073060;28;20608;-60
2023/06/23 08:12:51;;;;;;;6.53;5.93;;;;;;;;;;5073174;28;20197;-58
2023/06/23 08:15:17;;;;;;;6.13;5.63;;;;;;;;;;5073025;28;20319;-57
2023/06/23 08:17:43;;;;;;;6.33;5.73;;;;;;;;;;5072998;28;20197;-56
2023/06/23 08:20:09;;;;;;;6.60;5.77;;;;;;;;;;5072921;28;20317;-57
2023/06/23 08:22:37;;;;;;;4.97;4.47;;;;;;;;;;5072795;28;20232;-58
2023/06/23 08:25:04;;;;;;;5.30;4.70;;;;;;;;;;5072704;28;20205;-58
2023/06/23 08:27:30;;;;;;;6.47;5.20;;;;;;;;;;5072713;28;20202;-58
2023/06/23 08:29:56;;;;;;;6.67;4.90;;;;;;;;;;5072692;28;20208;-50
2023/06/23 08:32:25;;;;;;;5.30;4.80;;;;;;;;;;5072624;28;20607;-52
2023/06/23 08:34:51;;;;;;;5.43;4.93;;;;;;;;;;5072466;28;20210;-50
2023/06/23 08:37:17;;;;;;;5.43;4.53;;;;;;;;;;5072425;28;20254;-51
2023/06/23 08:39:44;;;;;;;5.60;5.10;;;;;;;;;;5072577;28;20239;-51
2023/06/23 08:42:12;;;;;;;5.93;5.33;;;;;;;;;;5072508;28;20210;-51
2023/06/23 08:44:41;;;;;;;5.30;4.80;;;;;;;;;;5071764;28;20301;-51
2023/06/23 08:47:12;;;;;;;6.20;5.70;;;;;;;;;;5072321;28;20280;-51
2023/06/23 08:49:39;;;;;;;7.07;6.07;;;;;;;;;;5072488;28;20201;-51
2023/06/23 08:52:06;;;;;;;7.43;6.73;;;;;;;;;;5072168;28;20686;-51
2023/06/23 08:54:32;;;;;;;7.13;6.43;;;;;;;;;;5069956;28;20197;-50
2023/06/23 08:56:59;;;;;;;6.73;6.13;;;;;;;;;;5071859;28;20261;-51
2023/06/23 08:59:25;;;;;;;7.87;7.17;;;;;;;;;;5071675;28;20301;-50
2023/06/23 09:01:51;;;;;;;8.17;7.47;;;;;;;;;;5071678;28;20201;-51
2023/06/23 09:04:18;;;;;;;7.27;6.57;;;;;;;;;;5071290;28;20220;-51
2023/06/23 09:06:44;;;;;;;8.37;7.57;;;;;;;;;;5071604;28;20198;-52
2023/06/23 09:09:10;;;;;;;7.83;6.60;;;;;;;;;;5071384;28;20675;-52
2023/06/23 09:11:36;;;;;;;7.73;6.93;;;;;;;;;;5071331;28;20581;-53
2023/06/23 09:14:04;;;;;;;7.77;7.07;;;;;;;;;;5071426;28;20634;-51
2023/06/23 09:16:30;;;;;;;7.57;6.83;;;;;;;;;;5071528;28;20233;-53
2023/06/23 09:18:56;;;;;;;6.80;6.13;;;;;;;;;;5071500;28;20194;-51
2023/06/23 09:21:23;;;;;;;7.97;7.10;;;;;;;;;;5071628;28;20280;-52
2023/06/23 09:24:01;;;;;;;6.80;6.10;;;;;;;;;;5071784;28;20205;-52
2023/06/23 09:26:27;;;;;;;8.10;7.30;;;;;;;;;;5071411;28;20255;-52
2023/06/23 09:29:13;;;;;;;9.13;7.90;;;;;;;;;;5071694;28;20247;-52
2023/06/23 09:31:41;;;;;;;8.43;7.53;;;;;;;;;;5071701;28;20210;-54
2023/06/23 09:34:07;;;;;;;8.00;6.93;;;;;;;;;;5071523;28;20282;-52
2023/06/23 09:36:33;;;;;;;8.20;6.90;;;;;;;;;;5071259;28;20286;-50
2023/06/23 09:39:01;;;;;;;9.50;8.50;;;;;;;;;;5071439;28;20621;-50
2023/06/23 09:41:31;;;;;;;9.80;8.90;;;;;;;;;;5069264;28;20226;-51
2023/06/23 09:43:57;;;;;;;9.17;8.27;;;;;;;;;;5070952;28;20562;-51
2023/06/23 09:46:23;;;;;;;8.67;7.87;;;;;;;;;;5070763;28;20193;-51
2023/06/23 09:48:51;;;;;;;9.20;8.27;;;;;;;;;;5070929;28;20202;-50
2023/06/23 09:51:19;;;;;;;9.20;7.87;;;;;;;;;;5070636;28;20310;-50
2023/06/23 09:53:45;;;;;;;10.13;9.13;;;;;;;;;;5070709;28;20198;-50
2023/06/23 09:56:14;;;;;;;9.10;8.03;;;;;;;;;;5070548;28;20313;-52
2023/06/23 09:58:40;;;;;;;9.20;8.30;;;;;;;;;;5071104;28;20203;-51
2023/06/23 10:01:07;;;;;;;9.03;8.23;;;;;;;;;;5070611;28;20642;-50
2023/06/23 10:03:41;;;;;;;8.70;7.90;;;;;;;;;;5070631;28;20297;-51
2023/06/23 10:06:09;;;;;;;9.10;7.50;;;;;;;;;;5070581;28;20241;-51
2023/06/23 10:08:38;;;;;;;9.17;8.27;;;;;;;;;;5070681;28;20223;-50
2023/06/23 10:11:04;;;;;;;9.13;8.23;;;;;;;;;;5070578;28;20241;-50
2023/06/23 10:13:30;;;;;;;8.93;7.30;;;;;;;;;;5070572;28;20199;-50
2023/06/23 10:15:56;;;;;;;8.90;8.00;;;;;;;;;;5070505;28;20737;-50
2023/06/23 10:18:23;;;;;;;8.53;7.57;;;;;;;;;;5070415;28;20234;-50
2023/06/23 10:20:49;;;;;;;8.97;8.07;;;;;;;;;;5070561;28;20199;-50
2023/06/23 10:23:17;;;;;;;8.80;7.70;;;;;;;;;;5070321;28;20195;-50
2023/06/23 10:25:45;;;;;;;7.63;6.50;;;;;;;;;;5070350;28;20230;-50
2023/06/23 10:28:12;;;;;;;8.17;7.27;;;;;;;;;;5070457;28;20199;-50
2023/06/23 10:30:39;;;;;;;9.33;7.80;;;;;;;;;;5070556;28;20195;-52
2023/06/23 10:33:05;;;;;;;9.27;8.37;;;;;;;;;;5070556;28;20257;-52
2023/06/23 10:35:33;;;;;;;9.33;7.53;;;;;;;;;;5070316;28;20223;-50
2023/06/23 10:38:04;;;;;;;7.43;6.07;;;;;;;;;;5070359;28;20222;-50
2023/06/23 10:40:37;;;;;;;7.43;6.73;;;;;;;;;;5070327;28;20202;-50
2023/06/23 10:43:04;;;;;;;7.53;6.83;;;;;;;;;;5070255;28;20662;-49
2023/06/23 10:45:30;;;;;;;9.37;7.90;;;;;;;;;;5070113;28;20221;-50
2023/06/23 10:47:56;;;;;;;10.20;7.43;;;;;;;;;;5070161;28;20222;-50
2023/06/23 10:50:23;;;;;;;9.47;8.03;;;;;;;;;;5070422;28;20301;-50
2023/06/23 10:52:49;;;;;;;9.97;8.47;;;;;;;;;;5070320;28;20599;-50
2023/06/23 10:55:34;;;;;;;9.27;7.90;;;;;;;;;;5070062;28;20320;-49
2023/06/23 10:58:16;;;;;;;9.43;7.63;;;;;;;;;;5070513;28;20188;-49
2023/06/23 11:00:44;;;;;;;11.90;8.23;;;;;;;;;;5069988;28;20245;-51
2023/06/23 11:03:24;;;;;;;8.27;7.47;;;;;;;;;;5069987;28;20199;-50
2023/06/23 11:05:53;;;;;;;8.20;7.40;;;;;;;;;;5069861;28;20241;-49
2023/06/23 11:08:27;;;;;;;10.33;8.17;;;;;;;;;;5072600;28;20195;-50
2023/06/23 11:10:59;;;;;;;10.13;7.77;;;;;;;;;;5073995;28;20243;-49
2023/06/23 11:13:31;;;;;;;8.30;7.50;;;;;;;;;;5074090;28;20227;-50
2023/06/23 11:15:58;;;;;;;8.63;7.37;;;;;;;;;;5073867;28;20280;-52
2023/06/23 11:18:26;;;;;;;8.77;7.47;;;;;;;;;;5073902;28;20253;-51
2023/06/23 11:20:52;;;;;;;7.73;7.00;;;;;;;;;;5074059;28;20268;-51
2023/06/23 11:23:18;;;;;;;9.30;8.40;;;;;;;;;;5073955;28;20636;-51
2023/06/23 11:25:48;;;;;;;9.57;7.80;;;;;;;;;;5074006;28;20231;-51
2023/06/23 11:28:24;;;;;;;9.00;7.90;;;;;;;;;;5073923;28;20226;-51
2023/06/23 11:31:00;;;;;;;9.80;7.60;;;;;;;;;;5071079;28;20273;-50
2023/06/23 11:33:27;;;;;;;8.20;6.57;;;;;;;;;;5071626;28;20222;-50
2023/06/23 11:35:53;;;;;;;8.83;8.03;;;;;;;;;;5073102;28;20298;-51
2023/06/23 11:38:19;;;;;;;9.33;7.43;;;;;;;;;;5073553;28;20203;-54
2023/06/23 11:40:46;;;;;;;8.20;7.30;;;;;;;;;;5073539;28;20287;-58
2023/06/23 11:43:14;;;;;;;9.63;7.43;;;;;;;;;;5073506;28;20200;-54
2023/06/23 11:45:44;;;;;;;8.07;7.27;;;;;;;;;;5073567;28;20188;-51
2023/06/23 11:48:12;;;;;;;9.53;8.00;;;;;;;;;;5073359;28;20198;-50
2023/06/23 11:50:40;;;;;;;8.30;6.90;;;;;;;;;;5073222;28;20199;-50
2023/06/23 11:53:10;;;;;;;8.80;7.27;;;;;;;;;;5073390;28;20241;-52
2023/06/23 11:55:36;;;;;;;9.43;7.43;;;;;;;;;;5073091;28;20184;-50
2023/06/23 11:58:03;;;;;;;8.27;7.43;;;;;;;;;;5073332;28;20638;-52
2023/06/23 12:00:30;;;;;;;7.27;6.57;;;;;;;;;;5073355;28;20203;-51
2023/06/23 12:02:58;;;;;;;7.73;7.00;;;;;;;;;;5073412;28;20192;-51
2023/06/23 12:05:27;;;;;;;7.47;6.00;;;;;;;;;;5073239;28;20255;-53
2023/06/23 12:07:53;;;;;;;7.77;6.10;;;;;;;;;;5073258;28;20197;-51
2023/06/23 12:10:20;;;;;;;7.40;6.63;;;;;;;;;;5073128;28;20226;-53
2023/06/23 12:12:48;;;;;;;7.40;6.37;;;;;;;;;;5073371;28;20309;-52
2023/06/23 12:15:14;;;;;;;8.07;6.40;;;;;;;;;;5072967;28;20723;-52
2023/06/23 12:17:44;;;;;;;6.63;6.03;;;;;;;;;;5072927;28;20246;-53
2023/06/23 12:20:10;;;;;;;6.77;6.17;;;;;;;;;;5072005;28;20264;-54
2023/06/23 12:22:38;;;;;;;7.63;6.20;;;;;;;;;;5072817;28;20222;-53
2023/06/23 12:25:04;;;;;;;6.53;5.93;;;;;;;;;;5072760;28;20230;-54
2023/06/23 12:27:31;;;;;;;7.37;5.67;;;;;;;;;;5072876;28;20199;-53
2023/06/23 12:30:14;;;;;;;6.73;6.03;;;;;;;;;;5072810;28;20279;-53
2023/06/23 12:32:40;;;;;;;6.40;5.80;;;;;;;;;;5072738;28;20293;-53
2023/06/23 12:35:06;;;;;;;9.77;6.60;;;;;;;;;;5072891;28;20226;-53
2023/06/23 12:37:45;;;;;;;8.20;7.40;;;;;;;;;;5072531;28;20339;-53
2023/06/23 12:40:12;;;;;;;7.27;6.50;;;;;;;;;;5072687;28;20203;-54
2023/06/23 12:42:39;;;;;;;9.07;7.77;;;;;;;;;;5072609;28;20270;-53
2023/06/23 12:45:05;;;;;;;8.80;7.13;;;;;;;;;;5072683;28;20577;-53
2023/06/23 12:47:31;;;;;;;8.53;7.43;;;;;;;;;;5072660;28;20658;-53
2023/06/23 12:50:02;;;;;;;7.33;6.63;;;;;;;;;;5072489;28;20613;-52
2023/06/23 12:52:28;;;;;;;7.90;6.83;;;;;;;;;;5072155;28;20202;-52
2023/06/23 12:54:56;;;;;;;7.47;6.87;;;;;;;;;;5072732;28;20253;-53
2023/06/23 12:57:23;;;;;;;10.57;7.93;;;;;;;;;;5075109;28;20234;-54
2023/06/23 12:59:49;;;;;;;7.77;6.67;;;;;;;;;;5078768;28;20619;-54
2023/06/23 13:02:18;;;;;;;8.90;7.27;;;;;;;;;;5079276;28;20690;-55
2023/06/23 13:04:45;;;;;;;7.40;6.37;;;;;;;;;;5083058;28;20235;-55
2023/06/23 13:07:22;;;;;;;10.30;7.93;;;;;;;;;;5084208;28;20219;-54
2023/06/23 13:09:49;;;;;;;8.57;7.77;;;;;;;;;;5084558;28;20243;-54
2023/06/23 13:12:20;;;;;;;8.53;7.73;;;;;;;;;;5084558;28;20202;-53
2023/06/23 13:14:47;;;;;;;9.30;8.40;;;;;;;;;;5083516;28;20686;-55
2023/06/23 13:17:14;;;;;;;9.10;7.53;;;;;;;;;;5083465;28;20223;-53
2023/06/23 13:19:40;;;;;;;9.73;7.53;;;;;;;;;;5081912;28;20204;-53
2023/06/23 13:22:06;;;;;;;9.97;6.97;;;;;;;;;;5076270;28;20203;-55
2023/06/23 13:24:39;;;;;;;7.50;6.77;;;;;;;;;;5083823;28;20184;-54
2023/06/23 13:27:08;;;;;;;7.53;6.60;;;;;;;;;;5079632;28;20211;-53
2023/06/23 13:29:37;;;;;;;10.43;8.17;;;;;;;;;;5072690;28;20204;-53
2023/06/23 13:32:06;;;;;;;11.20;7.70;;;;;;;;;;5083782;28;20212;-54
2023/06/23 13:34:39;;;;;;;10.33;7.90;;;;;;;;;;5082935;28;20200;-54
2023/06/23 13:37:08;;;;;;;11.90;7.83;;;;;;;;;;5087497;28;20291;-55
2023/06/23 13:39:43;;;;;;;8.27;6.90;;;;;;;;;;5084736;28;20205;-54
2023/06/23 13:42:10;;;;;;;7.80;6.37;;;;;;;;;;5082894;28;20264;-53
2023/06/23 13:44:40;;;;;;;7.73;6.70;;;;;;;;;;5079679;28;20221;-53
2023/06/23 13:47:07;;;;;;;8.57;6.93;;;;;;;;;;5078159;28;20253;-52
2023/06/23 13:49:33;;;;;;;10.17;6.80;;;;;;;;;;5071362;28;20221;-53
2023/06/23 13:51:59;;;;;;;8.07;6.30;;;;;;;;;;5080600;28;20197;-53
2023/06/23 13:54:28;;;;;;;8.00;6.70;;;;;;;;;;5082061;28;20210;-53
2023/06/23 13:56:56;;;;;;;6.73;5.10;;;;;;;;;;5081152;28;20229;-53
2023/06/23 13:59:24;;;;;;;6.70;6.00;;;;;;;;;;5073823;28;20293;-53
2023/06/23 14:01:52;;;;;;;7.70;5.93;;;;;;;;;;5070464;28;20186;-55
2023/06/23 14:04:21;;;;;;;9.67;7.23;;;;;;;;;;5088062;28;20237;-55
2023/06/23 14:06:51;;;;;;;7.13;6.30;;;;;;;;;;5081114;28;20202;-54
2023/06/23 14:09:21;;;;;;;8.93;6.33;;;;;;;;;;5084555;28;20202;-54
2023/06/23 14:11:48;;;;;;;7.50;5.90;;;;;;;;;;5083974;28;20206;-54
2023/06/23 14:14:16;;;;;;;7.40;6.33;;;;;;;;;;5075335;28;20563;-54
2023/06/23 14:16:43;;;;;;;8.03;6.03;;;;;;;;;;5079424;28;20780;-54
2023/06/23 14:19:10;;;;;;;7.00;6.30;;;;;;;;;;5086969;28;20664;-54
2023/06/23 14:21:36;;;;;;;7.17;5.47;;;;;;;;;;5070541;28;20208;-53
2023/06/23 14:24:03;;;;;;;7.23;5.70;;;;;;;;;;5077322;28;20225;-54
2023/06/23 14:26:29;;;;;;;6.27;5.30;;;;;;;;;;5077750;28;20304;-54
2023/06/23 14:28:58;;;;;;;6.87;4.73;;;;;;;;;;5078345;28;20210;-54
2023/06/23 14:31:25;;;;;;;6.20;4.40;;;;;;;;;;5084842;28;20199;-54
2023/06/23 14:33:52;;;;;;;5.70;5.13;;;;;;;;;;5082017;28;20191;-53
2023/06/23 14:36:21;;;;;;;5.67;4.97;;;;;;;;;;5072148;28;20264;-54
2023/06/23 14:38:47;;;;;;;5.67;5.07;;;;;;;;;;5078222;28;20195;-54
2023/06/23 14:41:13;;;;;;;4.90;4.33;;;;;;;;;;5076830;28;20210;-54
2023/06/23 14:43:40;;;;;;;4.87;3.93;;;;;;;;;;5083240;28;20195;-54
2023/06/23 14:46:08;;;;;;;4.67;4.00;;;;;;;;;;5086402;28;20203;-55